< < Back
Terminal Aerodrome Forecast


Current Version              Previous Versions:   1  2  3  4  5  6  7  8  9  

Terminal Aerodrome Forecast

125
FTUS44 KOHX 301742
TAFBNA
TAF
KBNA 301742Z 3018/0118 16007KT P6SM BKN080 OVC100
     FM010000 17006KT P6SM VCSH BKN050
     FM010900 18005KT P6SM OVC015
     FM011500 20007KT P6SM SCT020 BKN040=

Latest METAR

246
SAUS70 KWBC 010800 RRT
MTRBNA
METAR KBNA 010753Z 16004KT 5SM BR CLR 18/17 A2990 RMK AO2 SLP119
T01780167


USA.gov is the U.S. government's official web portal to all federal, state and local government web resources and services.